Time;durP1;ratioP1;P1;durP2;ratioP2;P2;SDS_P1;SDS_P2;PMS_P1;PMS_P2;Temp;Humidity;BMP_temperature;BMP_pressure;BME280_temperature;BME280_humidity;BME280_pressure;Samples;Min_cycle;Max_cycle;Signal;HPM_P1;HPM_P2
2021/11/16 00:00:10;;;;;;;94.43;36.03;;;5.30;99.90;;;;;;5114626;27;20278;-70
2021/11/16 00:02:58;;;;;;;84.17;33.00;;;5.30;99.90;;;;;;5119573;27;20203;-70
2021/11/16 00:05:45;;;;;;;89.53;33.97;;;5.30;99.90;;;;;;5119993;27;20257;-70
2021/11/16 00:08:34;;;;;;;84.23;33.07;;;5.30;99.90;;;;;;5120766;27;20949;-70
2021/11/16 00:11:22;;;;;;;77.07;31.97;;;5.40;99.90;;;;;;5116247;27;20199;-70
2021/11/16 00:14:10;;;;;;;76.97;32.10;;;5.30;99.90;;;;;;5116007;27;20614;-70
2021/11/16 00:16:57;;;;;;;79.57;32.47;;;5.30;99.90;;;;;;5115429;27;20230;-70
2021/11/16 00:19:48;;;;;;;81.03;33.03;;;5.30;99.90;;;;;;5124503;27;20203;-70
2021/11/16 00:22:35;;;;;;;76.50;30.13;;;5.30;99.90;;;;;;5116111;27;20549;-70
2021/11/16 00:25:33;;;;;;;74.47;31.20;;;5.30;99.90;;;;;;5116424;27;20268;-70
2021/11/16 00:28:20;;;;;;;80.23;31.00;;;5.30;99.90;;;;;;5115719;27;20184;-70
2021/11/16 00:31:08;;;;;;;77.23;31.40;;;5.30;99.90;;;;;;5121256;27;20199;-70
2021/11/16 00:33:59;;;;;;;75.67;30.47;;;5.30;99.90;;;;;;5125649;27;20234;-69
2021/11/16 00:36:46;;;;;;;74.40;31.67;;;5.30;99.90;;;;;;5123711;27;20205;-70
2021/11/16 00:39:33;;;;;;;77.20;30.57;;;5.30;99.90;;;;;;5115561;27;20235;-70
2021/11/16 00:42:23;;;;;;;75.87;31.07;;;5.40;99.90;;;;;;5121511;27;20191;-70
2021/11/16 00:45:13;;;;;;;77.30;31.67;;;5.30;99.90;;;;;;5122387;27;20285;-70
2021/11/16 00:48:00;;;;;;;90.93;33.63;;;5.40;99.90;;;;;;5113744;27;20200;-70
2021/11/16 00:50:48;;;;;;;77.90;30.77;;;5.40;99.90;;;;;;5120450;27;20195;-70
2021/11/16 00:53:37;;;;;;;93.03;34.77;;;5.40;99.90;;;;;;5118969;27;20205;-70
2021/11/16 00:56:24;;;;;;;80.20;32.03;;;5.40;99.90;;;;;;5122851;27;20707;-70
2021/11/16 00:59:13;;;;;;;70.97;30.47;;;5.40;99.90;;;;;;5121932;27;20208;-70
2021/11/16 01:02:01;;;;;;;71.10;31.33;;;5.40;99.90;;;;;;5120603;27;20668;-70
2021/11/16 01:04:50;;;;;;;67.03;29.17;;;5.40;99.90;;;;;;5118155;27;20204;-70
2021/11/16 01:07:38;;;;;;;69.80;29.70;;;5.40;99.90;;;;;;5110664;28;20274;-70
2021/11/16 01:10:26;;;;;;;66.63;28.20;;;5.40;99.90;;;;;;5116746;28;20286;-69
2021/11/16 01:13:13;;;;;;;65.50;28.70;;;5.30;99.90;;;;;;5112763;28;20214;-71
2021/11/16 01:16:02;;;;;;;64.90;27.80;;;5.30;99.90;;;;;;5119376;28;20199;-69
2021/11/16 01:18:50;;;;;;;65.73;28.73;;;5.20;99.90;;;;;;5119540;28;20720;-70
2021/11/16 01:21:37;;;;;;;62.03;26.77;;;5.10;99.90;;;;;;5116352;28;20194;-70
2021/11/16 01:24:25;;;;;;;64.90;26.67;;;5.10;99.90;;;;;;5118694;28;20256;-70
2021/11/16 01:27:17;;;;;;;55.03;25.03;;;5.00;99.90;;;;;;5111087;28;20237;-70
2021/11/16 01:30:05;;;;;;;55.00;24.53;;;5.10;99.90;;;;;;5112064;28;20236;-70
2021/11/16 01:33:03;;;;;;;62.83;25.40;;;5.10;99.90;;;;;;5115275;28;20231;-70
2021/11/16 01:35:50;;;;;;;60.90;25.43;;;5.10;99.90;;;;;;5113347;27;20213;-70
2021/11/16 01:38:38;;;;;;;58.83;25.80;;;5.10;99.90;;;;;;5121281;27;20282;-70
2021/11/16 01:41:26;;;;;;;56.23;25.40;;;5.10;99.90;;;;;;5119888;27;20198;-70
2021/11/16 01:44:14;;;;;;;57.17;23.43;;;5.00;99.90;;;;;;5124204;27;20230;-70
2021/11/16 01:47:01;;;;;;;58.43;25.47;;;5.00;99.90;;;;;;5123760;27;20196;-70
2021/11/16 01:49:50;;;;;;;59.77;25.83;;;5.00;99.90;;;;;;5120476;27;20187;-70
2021/11/16 01:52:38;;;;;;;62.57;26.10;;;5.00;99.90;;;;;;5123668;27;20226;-70
2021/11/16 01:55:25;;;;;;;63.30;26.20;;;5.00;99.90;;;;;;5115552;27;20227;-70
2021/11/16 01:58:13;;;;;;;60.17;24.90;;;5.00;99.90;;;;;;5124696;27;20250;-70
2021/11/16 02:01:03;;;;;;;61.83;26.03;;;5.00;99.90;;;;;;5122819;27;20233;-69
2021/11/16 02:03:50;;;;;;;57.40;24.97;;;4.90;99.90;;;;;;5123167;27;20672;-70
2021/11/16 02:06:41;;;;;;;65.90;27.87;;;4.90;99.90;;;;;;5116400;27;20199;-70
2021/11/16 02:09:28;;;;;;;64.70;26.90;;;4.90;99.90;;;;;;5123318;27;20624;-70
2021/11/16 02:12:16;;;;;;;65.67;26.93;;;4.90;99.90;;;;;;5123073;27;20677;-70
2021/11/16 02:15:04;;;;;;;69.93;27.93;;;4.80;99.90;;;;;;5124038;27;20194;-70
2021/11/16 02:17:52;;;;;;;67.17;27.63;;;4.80;99.90;;;;;;5122318;27;20261;-69
2021/11/16 02:20:41;;;;;;;63.13;27.37;;;4.80;99.90;;;;;;5117469;27;20202;-70
2021/11/16 02:23:29;;;;;;;71.07;27.70;;;4.80;99.90;;;;;;5118775;27;20782;-70
2021/11/16 02:26:16;;;;;;;61.27;26.70;;;4.80;99.90;;;;;;5124990;27;20209;-70
2021/11/16 02:29:04;;;;;;;70.70;28.13;;;4.90;99.90;;;;;;5117698;27;20584;-70
2021/11/16 02:31:55;;;;;;;71.57;29.40;;;4.80;99.90;;;;;;5124062;27;20552;-70
2021/11/16 02:34:44;;;;;;;76.47;29.93;;;4.90;99.90;;;;;;5093756;28;20216;-70
2021/11/16 02:37:35;;;;;;;74.73;27.70;;;4.90;99.90;;;;;;5098816;28;20646;-70
2021/11/16 02:40:23;;;;;;;63.27;27.23;;;4.90;99.90;;;;;;5098516;28;20199;-69
2021/11/16 02:43:11;;;;;;;66.10;26.57;;;4.80;99.90;;;;;;5101281;28;20215;-69
2021/11/16 02:45:59;;;;;;;67.50;27.23;;;4.80;99.90;;;;;;5099662;28;20188;-70
2021/11/16 02:48:46;;;;;;;72.60;29.60;;;4.90;99.90;;;;;;5097793;28;20202;-70
2021/11/16 02:51:36;;;;;;;71.60;28.47;;;4.80;99.90;;;;;;5097777;28;20247;-70
2021/11/16 02:54:26;;;;;;;70.17;28.50;;;4.90;99.90;;;;;;5097541;28;20219;-70
2021/11/16 02:57:13;;;;;;;68.80;29.00;;;4.90;99.90;;;;;;5100285;28;20298;-70
2021/11/16 03:00:01;;;;;;;68.97;28.20;;;4.90;99.90;;;;;;5097044;28;20247;-70
2021/11/16 03:02:48;;;;;;;70.00;28.80;;;4.90;99.90;;;;;;5098046;28;20743;-70
2021/11/16 03:05:36;;;;;;;66.47;29.40;;;5.00;99.90;;;;;;5099245;28;20535;-70
2021/11/16 03:08:25;;;;;;;67.27;29.17;;;5.00;99.90;;;;;;5099581;28;20191;-70
2021/11/16 03:11:15;;;;;;;70.47;29.43;;;5.10;99.90;;;;;;5102792;28;20200;-70
2021/11/16 03:14:03;;;;;;;66.07;29.50;;;5.10;99.90;;;;;;5102301;28;20287;-70
2021/11/16 03:16:50;;;;;;;76.57;29.07;;;5.10;99.90;;;;;;5102498;28;20782;-70
2021/11/16 03:19:38;;;;;;;71.20;29.37;;;5.10;99.90;;;;;;5096979;28;20226;-70
2021/11/16 03:22:31;;;;;;;68.90;27.70;;;5.10;99.90;;;;;;5104448;28;20279;-70
2021/11/16 03:25:22;;;;;;;67.53;27.27;;;5.10;99.90;;;;;;5103344;28;20200;-71
2021/11/16 03:28:11;;;;;;;66.40;27.17;;;5.10;99.90;;;;;;5098341;28;20207;-70
2021/11/16 03:31:07;;;;;;;67.10;28.93;;;5.10;99.90;;;;;;5098349;28;20539;-70
2021/11/16 03:33:55;;;;;;;71.90;28.03;;;5.10;99.90;;;;;;5117410;27;20846;-69
2021/11/16 03:36:42;;;;;;;70.77;29.33;;;5.20;99.90;;;;;;5120580;27;20210;-70
2021/11/16 03:39:30;;;;;;;70.80;29.20;;;5.20;99.90;;;;;;5119330;27;20263;-70
2021/11/16 03:42:17;;;;;;;81.20;31.73;;;5.20;99.90;;;;;;5123715;27;20256;-69
2021/11/16 03:45:07;;;;;;;77.00;30.73;;;5.20;99.90;;;;;;5115508;27;20196;-70
2021/11/16 03:47:55;;;;;;;69.83;29.07;;;5.30;99.90;;;;;;5120244;27;20201;-70
2021/11/16 03:50:43;;;;;;;68.60;28.47;;;5.30;99.90;;;;;;5115079;27;20194;-70
2021/11/16 03:53:31;;;;;;;75.13;29.43;;;5.30;99.90;;;;;;5116827;27;20195;-70
2021/11/16 03:56:19;;;;;;;74.63;28.80;;;5.30;99.90;;;;;;5122551;27;20234;-70
2021/11/16 03:59:06;;;;;;;78.47;31.00;;;5.30;99.90;;;;;;5118867;27;20344;-70
2021/11/16 04:01:55;;;;;;;74.47;29.83;;;5.30;99.90;;;;;;5120642;27;20251;-70
2021/11/16 04:04:44;;;;;;;75.17;30.10;;;5.30;99.90;;;;;;5114569;27;20213;-70
2021/11/16 04:07:31;;;;;;;81.03;30.27;;;5.30;99.90;;;;;;5120386;27;20199;-71
2021/11/16 04:10:19;;;;;;;81.53;30.50;;;5.30;99.90;;;;;;5114738;27;20548;-70
2021/11/16 04:13:07;;;;;;;76.30;31.20;;;5.30;99.90;;;;;;5121933;27;20202;-70
2021/11/16 04:15:54;;;;;;;80.30;30.67;;;5.30;99.90;;;;;;5111807;27;20583;-70
2021/11/16 04:18:44;;;;;;;77.07;30.07;;;5.20;99.90;;;;;;5116964;27;20737;-70
2021/11/16 04:21:31;;;;;;;61.07;26.07;;;5.20;99.90;;;;;;5112442;27;20203;-70
2021/11/16 04:24:19;;;;;;;67.37;27.17;;;5.20;99.90;;;;;;5123132;27;20191;-70
2021/11/16 04:27:07;;;;;;;63.57;26.60;;;5.10;99.90;;;;;;5117985;27;20196;-70
2021/11/16 04:29:55;;;;;;;71.20;27.33;;;5.00;99.90;;;;;;5117440;27;21009;-69
2021/11/16 04:32:43;;;;;;;64.10;28.33;;;5.00;99.90;;;;;;5119325;27;20325;-70
2021/11/16 04:35:32;;;;;;;65.57;27.43;;;5.00;99.90;;;;;;5117825;27;20664;-70
2021/11/16 04:38:20;;;;;;;73.07;28.30;;;4.90;99.90;;;;;;5115432;27;20197;-70
2021/11/16 04:41:09;;;;;;;69.83;27.63;;;4.90;99.90;;;;;;5121505;27;20207;-70
2021/11/16 04:43:59;;;;;;;69.87;28.50;;;4.90;99.90;;;;;;5120757;27;20231;-69
2021/11/16 04:46:47;;;;;;;79.60;28.73;;;4.90;99.90;;;;;;5121021;27;20209;-69
2021/11/16 04:49:37;;;;;;;76.03;29.33;;;4.90;99.90;;;;;;5114230;27;20183;-70
2021/11/16 04:52:33;;;;;;;76.43;28.10;;;4.90;99.90;;;;;;5118462;27;20248;-69
2021/11/16 04:55:31;;;;;;;73.33;27.53;;;4.90;99.90;;;;;;5114431;27;20218;-70
2021/11/16 05:04:32;;;;;;;81.60;26.80;;;4.90;99.90;;;;;;5118300;27;20196;-70
2021/11/16 05:07:21;;;;;;;94.43;27.80;;;4.90;99.90;;;;;;5113773;27;20194;-70
2021/11/16 05:10:10;;;;;;;86.23;28.80;;;4.90;99.90;;;;;;5114184;28;20708;-70
2021/11/16 05:12:59;;;;;;;87.13;29.33;;;4.90;99.90;;;;;;5119644;28;20191;-69
2021/11/16 05:15:50;;;;;;;98.90;30.57;;;4.90;99.90;;;;;;5120447;28;20229;-70
2021/11/16 05:18:38;;;;;;;83.23;27.87;;;4.90;99.90;;;;;;5118601;28;20198;-70
2021/11/16 05:21:25;;;;;;;88.00;27.23;;;4.90;99.90;;;;;;5112007;28;20223;-70
2021/11/16 05:24:13;;;;;;;94.17;29.03;;;4.90;99.90;;;;;;5117524;28;20191;-70
2021/11/16 05:27:02;;;;;;;90.47;29.50;;;4.90;99.90;;;;;;5117966;28;20199;-70
2021/11/16 05:29:49;;;;;;;97.30;29.00;;;4.90;99.90;;;;;;5120499;28;20561;-70
2021/11/16 05:32:38;;;;;;;112.27;30.50;;;4.90;99.90;;;;;;5118829;28;20227;-70
2021/11/16 05:35:25;;;;;;;95.57;29.77;;;4.90;99.90;;;;;;5115793;28;20695;-70
2021/11/16 05:38:23;;;;;;;103.93;29.93;;;4.90;99.90;;;;;;5120696;28;20191;-70
2021/11/16 05:41:10;;;;;;;90.53;28.27;;;4.80;99.90;;;;;;5120904;28;20199;-70
2021/11/16 05:43:59;;;;;;;130.87;30.80;;;4.90;99.90;;;;;;5117652;28;20199;-69
2021/11/16 05:46:47;;;;;;;101.47;32.70;;;4.90;99.90;;;;;;5118769;28;20195;-70
2021/11/16 05:49:35;;;;;;;128.57;32.40;;;4.90;99.90;;;;;;5119181;28;20279;-70
2021/11/16 05:52:23;;;;;;;176.67;31.97;;;4.80;99.90;;;;;;5116594;28;20195;-70
2021/11/16 05:55:11;;;;;;;143.90;29.63;;;4.80;99.90;;;;;;5114361;28;20315;-70
2021/11/16 05:57:59;;;;;;;83.03;28.43;;;4.80;99.90;;;;;;5119229;28;20560;-70
2021/11/16 06:00:48;;;;;;;89.53;26.63;;;4.80;99.90;;;;;;5114813;28;20219;-71
2021/11/16 06:03:35;;;;;;;80.27;26.37;;;4.80;99.90;;;;;;5115906;28;20211;-69
2021/11/16 06:06:23;;;;;;;72.17;24.43;;;4.80;99.90;;;;;;5114778;28;20186;-70
2021/11/16 06:09:12;;;;;;;85.03;25.67;;;4.80;99.90;;;;;;5109621;28;20191;-70
2021/11/16 06:12:00;;;;;;;83.40;23.93;;;4.80;99.90;;;;;;5114132;28;20203;-70
2021/11/16 06:14:51;;;;;;;67.57;23.00;;;4.80;99.90;;;;;;5108003;28;20187;-70
2021/11/16 06:17:43;;;;;;;66.23;23.10;;;4.80;99.90;;;;;;5117221;28;20295;-70
2021/11/16 06:20:31;;;;;;;73.80;23.60;;;4.80;99.90;;;;;;5129237;28;20233;-70
2021/11/16 06:23:19;;;;;;;65.40;23.17;;;4.80;99.90;;;;;;5121101;27;20199;-70
2021/11/16 06:26:07;;;;;;;61.80;22.47;;;4.80;99.90;;;;;;5128966;27;20202;-70
2021/11/16 06:28:54;;;;;;;54.87;20.80;;;4.80;99.90;;;;;;5117568;27;20207;-69
2021/11/16 06:31:42;;;;;;;53.70;21.27;;;4.80;99.90;;;;;;5113777;27;20195;-69
2021/11/16 06:34:31;;;;;;;56.20;21.60;;;4.70;99.90;;;;;;5112128;27;20562;-70
2021/11/16 06:37:18;;;;;;;59.80;22.37;;;4.70;99.90;;;;;;5119185;27;20669;-70
2021/11/16 06:40:08;;;;;;;66.20;22.00;;;4.70;99.90;;;;;;5119055;27;20218;-70
2021/11/16 06:42:55;;;;;;;66.53;22.73;;;4.70;99.90;;;;;;5122027;27;20334;-69
2021/11/16 06:45:43;;;;;;;68.77;23.13;;;4.70;99.90;;;;;;5121552;27;20213;-69
2021/11/16 06:48:31;;;;;;;78.13;23.77;;;4.80;99.90;;;;;;5120984;27;20270;-70
2021/11/16 06:51:23;;;;;;;69.93;22.67;;;4.80;99.90;;;;;;5120593;27;20200;-70
2021/11/16 06:54:12;;;;;;;72.60;23.43;;;4.80;99.90;;;;;;5121326;27;20199;-70
2021/11/16 06:57:00;;;;;;;59.40;20.90;;;4.80;99.90;;;;;;5122118;27;20567;-70
2021/11/16 06:59:47;;;;;;;67.60;22.37;;;4.90;99.90;;;;;;5122881;27;20218;-70
2021/11/16 07:02:35;;;;;;;60.17;22.20;;;4.90;99.90;;;;;;5124625;27;20203;-70
2021/11/16 07:05:23;;;;;;;68.77;22.63;;;4.90;99.90;;;;;;5114889;27;20275;-70
2021/11/16 07:08:12;;;;;;;57.47;21.70;;;4.90;99.90;;;;;;5118058;27;20195;-70
2021/11/16 07:11:04;;;;;;;66.10;22.97;;;4.90;99.90;;;;;;5122230;27;20203;-70
2021/11/16 07:13:56;;;;;;;68.77;23.87;;;4.90;99.90;;;;;;5117719;27;20214;-70
2021/11/16 07:16:45;;;;;;;64.37;22.00;;;4.90;99.90;;;;;;5113876;27;20214;-70
2021/11/16 07:19:35;;;;;;;69.03;23.37;;;4.90;99.90;;;;;;5123167;27;20241;-70
2021/11/16 07:22:24;;;;;;;67.63;21.20;;;4.90;99.90;;;;;;5119786;27;20202;-70
2021/11/16 07:25:15;;;;;;;63.90;23.30;;;5.00;99.90;;;;;;5119717;27;20206;-70
2021/11/16 07:28:03;;;;;;;66.03;22.43;;;5.10;99.90;;;;;;5117844;27;20206;-70
2021/11/16 07:30:50;;;;;;;60.50;21.93;;;5.10;99.90;;;;;;5122915;27;20576;-70
2021/11/16 07:33:39;;;;;;;67.77;22.43;;;5.10;99.90;;;;;;5116484;27;20735;-70
2021/11/16 07:36:26;;;;;;;70.23;22.90;;;5.20;99.90;;;;;;5120600;27;20206;-70
2021/11/16 07:39:14;;;;;;;65.13;24.40;;;5.30;99.90;;;;;;5119507;27;20204;-70
2021/11/16 07:42:08;;;;;;;64.70;23.00;;;5.20;99.90;;;;;;5118612;27;20237;-70
2021/11/16 07:45:08;;;;;;;58.87;23.50;;;5.20;99.90;;;;;;5117459;27;20669;-70
2021/11/16 07:47:56;;;;;;;67.13;23.33;;;5.20;99.90;;;;;;5110620;27;20197;-70
2021/11/16 07:50:45;;;;;;;52.47;20.93;;;5.30;99.90;;;;;;5119521;27;20196;-70
2021/11/16 07:53:33;;;;;;;55.60;21.67;;;5.20;99.90;;;;;;5117555;27;20661;-70
2021/11/16 07:56:24;;;;;;;56.73;21.70;;;5.20;99.90;;;;;;5120540;27;20217;-70
2021/11/16 07:59:13;;;;;;;62.33;22.23;;;5.30;99.90;;;;;;5121854;27;20206;-71
2021/11/16 08:02:01;;;;;;;54.97;21.67;;;5.30;99.90;;;;;;5116401;27;20257;-71
2021/11/16 08:05:01;;;;;;;77.17;26.17;;;5.30;99.90;;;;;;5119752;27;20253;-71
2021/11/16 08:08:13;;;;;;;67.77;23.33;;;5.30;99.90;;;;;;5119201;27;20198;-72
2021/11/16 08:11:09;;;;;;;65.53;24.73;;;5.40;99.90;;;;;;5117819;27;20219;-72
2021/11/16 08:13:59;;;;;;;62.73;23.10;;;5.40;99.90;;;;;;5120232;27;20215;-71
2021/11/16 08:16:53;;;;;;;59.07;22.47;;;5.50;99.90;;;;;;5124580;27;20209;-70
2021/11/16 08:19:41;;;;;;;65.17;24.43;;;5.50;99.90;;;;;;5117806;27;20191;-70
2021/11/16 08:22:29;;;;;;;65.67;24.47;;;5.50;99.90;;;;;;5120636;27;20204;-70
2021/11/16 08:25:16;;;;;;;62.77;24.13;;;5.60;99.90;;;;;;5117653;27;20214;-71
2021/11/16 08:28:05;;;;;;;64.87;25.23;;;5.70;99.90;;;;;;5112893;27;20977;-71
2021/11/16 08:30:53;;;;;;;72.90;26.50;;;5.70;99.90;;;;;;5114148;27;20196;-70
2021/11/16 08:33:43;;;;;;;70.87;26.83;;;5.70;99.90;;;;;;5116694;27;20242;-71
2021/11/16 08:36:31;;;;;;;63.90;24.67;;;5.70;99.90;;;;;;5114860;27;20205;-69
2021/11/16 08:39:20;;;;;;;69.77;24.67;;;5.80;99.90;;;;;;5118639;27;20203;-70
2021/11/16 08:42:12;;;;;;;63.93;26.27;;;5.80;99.90;;;;;;5120297;27;20274;-70
2021/11/16 08:45:07;;;;;;;57.77;23.40;;;5.80;99.90;;;;;;5114380;27;20807;-70
2021/11/16 08:47:57;;;;;;;56.27;22.27;;;5.90;99.90;;;;;;5116817;27;20565;-70
2021/11/16 08:50:47;;;;;;;59.10;23.70;;;5.90;99.90;;;;;;5117597;27;20197;-69
2021/11/16 08:53:35;;;;;;;59.57;23.03;;;5.90;99.90;;;;;;5115956;27;20194;-69
2021/11/16 08:56:27;;;;;;;79.17;27.47;;;6.00;99.90;;;;;;5111109;27;20248;-69
2021/11/16 08:59:16;;;;;;;65.80;23.93;;;6.00;99.90;;;;;;5115873;27;20315;-69
2021/11/16 09:02:05;;;;;;;61.23;23.53;;;6.10;99.90;;;;;;5114475;27;20295;-70
2021/11/16 09:04:53;;;;;;;59.53;22.33;;;6.00;99.90;;;;;;5117309;27;20208;-70
2021/11/16 09:07:52;;;;;;;57.27;21.17;;;6.00;99.90;;;;;;5119185;27;20205;-70
2021/11/16 09:10:41;;;;;;;56.87;22.47;;;6.10;99.90;;;;;;5119739;27;20188;-70
2021/11/16 09:13:29;;;;;;;56.23;21.03;;;6.10;99.90;;;;;;5115479;27;21017;-70
2021/11/16 09:16:18;;;;;;;58.07;21.87;;;6.20;99.90;;;;;;5114853;28;20647;-71
2021/11/16 09:19:06;;;;;;;53.00;21.90;;;6.20;99.90;;;;;;5116591;28;20208;-72
2021/11/16 09:21:53;;;;;;;52.23;22.07;;;6.20;99.90;;;;;;5122517;28;20228;-70
2021/11/16 09:24:44;;;;;;;49.93;21.40;;;6.30;99.90;;;;;;5108085;28;20209;-71
2021/11/16 09:27:39;;;;;;;48.77;20.57;;;6.30;99.90;;;;;;5114718;28;20564;-70
2021/11/16 09:30:39;;;;;;;56.63;21.93;;;6.30;99.90;;;;;;5111130;28;20329;-70
2021/11/16 09:33:26;;;;;;;53.60;21.73;;;6.40;99.90;;;;;;5115507;28;20237;-70
2021/11/16 09:36:21;;;;;;;49.30;20.93;;;6.40;99.90;;;;;;5121511;28;20195;-70
2021/11/16 09:39:10;;;;;;;49.70;20.53;;;6.50;99.90;;;;;;5115456;28;20204;-70
2021/11/16 09:42:01;;;;;;;45.47;20.00;;;6.40;99.90;;;;;;5120016;28;20224;-69
2021/11/16 09:44:52;;;;;;;44.60;19.37;;;6.50;99.90;;;;;;5117310;28;20209;-71
2021/11/16 09:47:41;;;;;;;49.50;19.87;;;6.40;99.90;;;;;;5112608;28;20214;-70
2021/11/16 09:50:28;;;;;;;43.87;19.70;;;6.40;99.90;;;;;;5120503;28;20663;-70
2021/11/16 09:53:16;;;;;;;52.07;21.50;;;6.40;99.90;;;;;;5112156;28;20202;-70
2021/11/16 09:56:05;;;;;;;47.87;20.43;;;6.50;99.90;;;;;;5119543;27;20224;-71
2021/11/16 09:58:54;;;;;;;48.37;19.87;;;6.60;99.90;;;;;;5116383;27;20197;-70
2021/11/16 10:01:42;;;;;;;51.13;21.27;;;6.70;99.90;;;;;;5123650;27;20215;-70
2021/11/16 10:04:34;;;;;;;48.13;21.67;;;6.80;99.90;;;;;;5118390;27;20204;-70
2021/11/16 10:07:22;;;;;;;65.23;24.67;;;6.80;99.90;;;;;;5117577;27;20680;-70
2021/11/16 10:10:09;;;;;;;59.47;24.13;;;7.00;99.90;;;;;;5112536;27;20232;-70
2021/11/16 10:12:59;;;;;;;59.30;24.47;;;7.00;99.90;;;;;;5122758;27;20284;-70
2021/11/16 10:15:49;;;;;;;56.67;23.30;;;7.10;99.90;;;;;;5120350;27;20205;-72
2021/11/16 10:18:38;;;;;;;61.83;23.97;;;7.20;99.90;;;;;;5118146;27;20205;-70
2021/11/16 10:21:26;;;;;;;52.60;23.03;;;7.40;99.90;;;;;;5125615;27;20221;-70
2021/11/16 10:24:26;;;;;;;56.73;23.63;;;7.40;99.90;;;;;;5117070;27;20191;-70
2021/11/16 10:27:34;;;;;;;56.57;23.70;;;7.50;99.90;;;;;;5122228;27;20195;-70
2021/11/16 10:30:23;;;;;;;53.63;23.70;;;7.70;99.90;;;;;;5120583;27;20201;-70
2021/11/16 10:33:13;;;;;;;53.07;20.70;;;7.80;99.90;;;;;;5119546;27;20720;-70
2021/11/16 10:36:02;;;;;;;54.63;23.70;;;7.70;99.90;;;;;;5118976;27;20217;-70
2021/11/16 10:38:52;;;;;;;58.97;23.60;;;7.60;99.90;;;;;;5119533;27;20197;-70
2021/11/16 10:41:41;;;;;;;59.90;24.67;;;7.70;99.90;;;;;;5092347;28;20576;-70
2021/11/16 10:44:31;;;;;;;57.77;23.47;;;7.70;99.90;;;;;;5123929;27;20270;-70
2021/11/16 10:47:19;;;;;;;45.90;22.10;;;7.80;99.90;;;;;;5125728;27;20323;-70
2021/11/16 10:50:12;;;;;;;51.13;21.23;;;7.90;99.90;;;;;;5122841;27;20226;-70
2021/11/16 10:53:03;;;;;;;51.60;21.30;;;8.00;99.90;;;;;;5114942;27;20658;-70
2021/11/16 10:55:52;;;;;;;47.27;20.93;;;8.20;99.90;;;;;;5122860;27;20221;-70
2021/11/16 10:58:41;;;;;;;46.57;20.77;;;8.30;99.90;;;;;;5119353;27;20276;-71
2021/11/16 11:01:28;;;;;;;52.27;21.83;;;8.30;99.90;;;;;;5115392;27;20246;-70
2021/11/16 11:04:16;;;;;;;50.90;22.80;;;8.50;99.90;;;;;;5126249;27;20199;-70
2021/11/16 11:07:12;;;;;;;53.20;22.80;;;8.60;99.90;;;;;;5116189;27;20191;-70
2021/11/16 11:10:00;;;;;;;55.03;23.93;;;8.60;99.90;;;;;;5121608;27;20574;-69
2021/11/16 11:12:47;;;;;;;64.53;26.23;;;8.80;99.90;;;;;;5116883;27;20206;-68
2021/11/16 11:15:35;;;;;;;51.00;23.20;;;9.20;99.90;;;;;;5123010;27;20672;-70
2021/11/16 11:18:34;;;;;;;47.17;23.37;;;9.60;99.90;;;;;;5094456;28;20206;-69
2021/11/16 11:21:27;;;;;;;51.07;22.40;;;9.90;99.90;;;;;;5096245;28;20591;-69
2021/11/16 11:24:19;;;;;;;47.30;21.63;;;10.40;99.90;;;;;;5119013;27;20288;-69
2021/11/16 11:27:18;;;;;;;47.10;22.87;;;10.60;99.90;;;;;;5121708;27;20280;-69
2021/11/16 11:30:08;;;;;;;48.23;21.90;;;11.50;99.90;;;;;;5119626;27;20208;-69
2021/11/16 11:32:56;;;;;;;43.80;23.30;;;12.40;99.90;;;;;;5117612;27;20272;-69
2021/11/16 11:35:44;;;;;;;48.03;22.13;;;13.60;99.90;;;;;;5119128;27;20263;-68
2021/11/16 11:38:36;;;;;;;42.83;22.33;;;14.40;99.90;;;;;;5098352;28;20546;-69
2021/11/16 11:41:25;;;;;;;41.30;21.77;;;15.80;99.90;;;;;;5110150;27;20668;-70
2021/11/16 11:44:17;;;;;;;42.07;21.90;;;16.80;99.90;;;;;;5117050;27;20288;-71
2021/11/16 11:47:04;;;;;;;36.93;19.83;;;17.80;99.90;;;;;;5120074;27;20210;-70
2021/11/16 11:49:52;;;;;;;38.45;21.25;;;18.40;93.50;;;;;;5110651;27;20206;-70
2021/11/16 11:52:40;;;;;;;36.20;20.20;;;18.70;92.30;;;;;;5111187;27;20196;-70
2021/11/16 11:55:27;;;;;;;38.88;21.42;;;19.50;87.90;;;;;;5116258;27;20211;-70
2021/11/16 11:58:17;;;;;;;37.83;21.27;;;19.80;84.70;;;;;;5120666;27;20206;-70
2021/11/16 12:01:12;;;;;;;38.28;20.27;;;20.20;83.30;;;;;;5111820;27;20212;-70
2021/11/16 12:03:59;;;;;;;34.05;19.48;;;20.50;81.00;;;;;;5116326;27;20580;-71
2021/11/16 12:06:49;;;;;;;36.25;20.38;;;21.10;78.00;;;;;;5114553;27;20675;-71
2021/11/16 12:09:37;;;;;;;34.10;20.40;;;21.70;76.00;;;;;;5113839;27;20677;-70
2021/11/16 12:12:25;;;;;;;34.63;20.73;;;22.10;72.20;;;;;;5097678;28;20191;-70
2021/11/16 12:15:17;;;;;;;36.88;21.75;;;22.40;69.10;;;;;;5093572;28;20295;-71
2021/11/16 12:18:04;;;;;;;41.20;22.77;;;22.70;68.40;;;;;;5097048;28;20200;-70
2021/11/16 12:20:54;;;;;;;36.03;20.13;;;22.60;66.30;;;;;;5089320;28;20509;-71
2021/11/16 12:23:46;;;;;;;39.45;21.58;;;22.40;66.10;;;;;;5091827;28;20210;-71
2021/11/16 12:26:35;;;;;;;34.55;20.48;;;22.60;65.10;;;;;;5119010;27;20202;-70
2021/11/16 12:29:23;;;;;;;34.53;20.35;;;22.60;64.20;;;;;;5114684;27;20553;-70
2021/11/16 12:32:20;;;;;;;33.10;21.13;;;22.40;63.20;;;;;;5114682;27;20194;-70
2021/11/16 12:35:16;;;;;;;39.70;22.13;;;21.70;62.90;;;;;;5118217;27;20646;-70
2021/11/16 12:38:03;;;;;;;40.42;23.48;;;21.60;64.20;;;;;;5116556;27;20203;-70
2021/11/16 12:40:51;;;;;;;42.20;24.05;;;20.90;64.90;;;;;;5114982;27;20198;-70
2021/11/16 12:43:47;;;;;;;42.15;25.38;;;20.70;66.30;;;;;;5113091;27;20252;-69
2021/11/16 12:46:36;;;;;;;50.50;26.13;;;21.20;66.40;;;;;;5114941;27;20575;-70
2021/11/16 12:49:34;;;;;;;51.63;27.10;;;21.30;66.40;;;;;;5116937;27;20198;-69
2021/11/16 12:52:23;;;;;;;64.07;31.87;;;21.60;65.20;;;;;;5118538;27;20670;-70
2021/11/16 12:55:19;;;;;;;45.40;25.73;;;21.10;64.20;;;;;;5117937;27;20290;-70
2021/11/16 12:58:26;;;;;;;51.00;26.30;;;21.40;65.60;;;;;;5113563;27;20226;-70
2021/11/16 13:01:35;;;;;;;54.43;29.80;;;21.50;64.90;;;;;;5120340;27;20214;-70
2021/11/16 13:04:48;;;;;;;48.20;25.97;;;21.70;64.30;;;;;;5117933;27;20207;-69
2021/11/16 13:07:36;;;;;;;48.87;27.10;;;21.80;64.10;;;;;;5111925;27;20276;-70
2021/11/16 13:10:25;;;;;;;51.13;26.17;;;21.90;63.30;;;;;;5117775;28;20213;-70
2021/11/16 13:13:20;;;;;;;44.17;24.23;;;21.80;63.10;;;;;;5119764;27;20199;-70
2021/11/16 13:16:07;;;;;;;49.50;24.83;;;21.10;62.50;;;;;;5117625;27;20649;-70
2021/11/16 13:18:56;;;;;;;48.93;24.57;;;20.70;63.30;;;;;;5119485;28;20198;-70
2021/11/16 13:21:45;;;;;;;49.77;25.23;;;20.40;65.20;;;;;;5119744;28;20249;-70
2021/11/16 13:24:39;;;;;;;47.20;26.13;;;20.50;64.30;;;;;;5117772;28;20218;-70
2021/11/16 13:27:53;;;;;;;47.30;24.40;;;20.60;64.10;;;;;;5117680;28;20234;-70
2021/11/16 13:30:41;;;;;;;48.37;25.80;;;20.60;64.70;;;;;;5090773;28;20288;-70
2021/11/16 13:33:45;;;;;;;47.53;24.17;;;20.20;64.90;;;;;;5115677;27;20222;-70
2021/11/16 13:36:45;;;;;;;45.80;25.30;;;19.60;66.20;;;;;;5115281;27;20202;-70
2021/11/16 13:39:34;;;;;;;46.83;22.60;;;19.90;66.40;;;;;;5115722;27;20191;-70
2021/11/16 13:42:22;;;;;;;47.50;24.43;;;20.20;65.80;;;;;;5130552;27;20320;-71
2021/11/16 13:45:10;;;;;;;47.77;24.93;;;20.10;65.30;;;;;;5117071;27;20607;-70
2021/11/16 13:47:57;;;;;;;45.17;24.17;;;19.10;66.20;;;;;;5119262;27;20645;-70
2021/11/16 13:50:45;;;;;;;49.87;25.00;;;18.50;68.00;;;;;;5116376;27;20221;-70
2021/11/16 13:53:33;;;;;;;48.53;25.67;;;18.00;69.10;;;;;;5115228;27;20744;-70
2021/11/16 13:56:21;;;;;;;46.93;24.23;;;17.90;69.80;;;;;;5128690;27;20224;-70
2021/11/16 13:59:17;;;;;;;49.37;23.77;;;17.70;70.30;;;;;;5127532;27;20329;-70
2021/11/16 14:02:06;;;;;;;46.43;25.00;;;17.70;69.80;;;;;;5125089;27;20223;-70
2021/11/16 14:04:58;;;;;;;48.17;25.27;;;17.00;70.60;;;;;;5127126;27;20282;-70
2021/11/16 14:07:55;;;;;;;50.80;24.37;;;15.90;72.80;;;;;;5105323;28;20260;-70
2021/11/16 14:10:45;;;;;;;46.33;23.43;;;14.80;76.50;;;;;;5112510;27;20215;-70
2021/11/16 14:13:34;;;;;;;48.20;24.13;;;14.30;79.00;;;;;;5113773;27;20213;-69
2021/11/16 14:16:29;;;;;;;41.93;22.83;;;13.90;81.10;;;;;;5115076;27;20199;-70
2021/11/16 14:19:17;;;;;;;49.23;24.70;;;13.00;83.40;;;;;;5099487;28;20205;-69
2021/11/16 14:22:04;;;;;;;54.53;25.13;;;12.20;89.20;;;;;;5107594;28;20223;-70
2021/11/16 14:24:52;;;;;;;48.37;24.63;;;11.50;92.70;;;;;;5104831;28;20207;-71
2021/11/16 14:27:41;;;;;;;50.03;24.73;;;10.70;97.80;;;;;;5111884;27;20670;-71
2021/11/16 14:30:32;;;;;;;55.67;25.13;;;9.80;99.90;;;;;;5124365;27;20209;-69
2021/11/16 14:33:19;;;;;;;51.83;24.53;;;9.10;99.90;;;;;;5115726;27;20227;-69
2021/11/16 14:36:07;;;;;;;51.17;25.43;;;8.40;99.90;;;;;;5129150;27;20223;-69